1927 NOT_NAMED (1927228N12145)


IBTrACS version v04r00. Visit IBTrACS website for data access.
Please direct all questions to the IBTrACS Q and A forum

Storm track - Intensity - Wind Radii - Intensity Data - Source Data - All data

Summary Information

Storm ID 1927228N12145
Start Aug 15 22Z
Landfall Aug 19 22Z, Aug 21 12Z
End Aug 21 22Z
ATCF IDs
Track status Best track data.

Storm track plot

Map of storm track

Intensity plots

No Intensity information for this storm


Radial wind information

No radial wind information for this storm


Position and Intensity Table

BASIN ISO_TIME_________ NATURE LAT LON
degrees north degrees east
WP 1927-08-15 22:00:00 NR 11.60 144.80
WP 1927-08-16 00:00:00 NR 11.82 144.30
WP 03:00:00 NR 12.16 143.56
WP 06:00:00 NR 12.48 142.83
WP 09:00:00 NR 12.80 142.13
WP 10:00:00 NR 12.90 141.90
WP 12:00:00 NR 13.10 141.45
WP 15:00:00 NR 13.39 140.81
WP 18:00:00 NR 13.66 140.20
WP 21:00:00 NR 13.92 139.60
WP 22:00:00 NR 14.00 139.40
WP 1927-08-17 00:00:00 NR 14.16 139.01
WP 03:00:00 NR 14.40 138.44
WP 06:00:00 NR 14.62 137.88
WP 09:00:00 NR 14.83 137.30
WP 10:00:00 NR 14.90 137.10
WP 12:00:00 NR 15.04 136.69
WP 15:00:00 NR 15.25 136.05
WP 18:00:00 NR 15.45 135.39
WP 21:00:00 NR 15.64 134.72
WP 22:00:00 NR 15.70 134.50
WP 1927-08-18 00:00:00 NR 15.81 134.05
WP 03:00:00 NR 15.97 133.37
WP 06:00:00 NR 16.12 132.69
WP 09:00:00 NR 16.26 132.02
WP 10:00:00 NR 16.30 131.80
WP 12:00:00 NR 16.38 131.40
WP 15:00:00 NR 16.50 130.82
WP 18:00:00 NR 16.62 130.22
WP 21:00:00 NR 16.75 129.55
WP 22:00:00 NR 16.80 129.30
WP 1927-08-19 00:00:00 NR 16.91 128.75
WP 03:00:00 NR 17.08 127.84
WP 06:00:00 NR 17.26 126.88
WP 09:00:00 NR 17.44 125.92
WP 10:00:00 NR 17.50 125.60
WP 12:00:00 NR 17.58 124.99
WP 15:00:00 NR 17.71 124.10
WP 18:00:00 NR 17.87 123.22
WP 21:00:00 NR 18.10 122.37
WP 22:00:00 NR 18.20 122.10
WP 1927-08-20 00:00:00 NR 18.46 121.58
WP 03:00:00 NR 18.94 120.82
WP 06:00:00 NR 19.45 120.07
WP 09:00:00 NR 19.95 119.28
WP 10:00:00 NR 20.10 119.00
WP 12:00:00 NR 20.37 118.41
WP 15:00:00 NR 20.73 117.47
WP 18:00:00 NR 21.02 116.51
WP 21:00:00 NR 21.25 115.53
WP 22:00:00 NR 21.30 115.20
WP 1927-08-21 00:00:00 NR 21.37 114.56
WP 03:00:00 NR 21.39 113.59
WP 06:00:00 NR 21.39 112.64
WP 09:00:00 NR 21.39 111.71
WP 10:00:00 NR 21.40 111.40
WP 12:00:00 NR 21.45 110.80
WP 15:00:00 NR 21.57 109.92
WP 18:00:00 NR 21.74 109.05
WP 21:00:00 NR 21.93 108.19
WP 22:00:00 NR 22.00 107.90

Source Information

Agency Information
USA
TOKYO
CMA
HKO
NEWDELHI
REUNION
BOM
NADI
WELLINGTON
DS824
TD9636 cons_worldwide_trop_cyclone_18710101-19891231-003:Line=7821
TD9635
NEUMANN
MLC

All available IBTrACS Data

SEASON BASIN SUBBASIN ISO_TIME_________ NATURE LAT LON DIST2LAND LANDFALL IFLAG USA SSHS TD9636 LAT TD9636 LON TD9636 STAGE STORM SPEED STORM DIR
Year degrees north degrees east km km 1 degrees north degrees east kts degrees
1927 WP MM 1927-08-15 22:00:00 NR 11.60 144.80 1547 1547 __________O___ -1 11.60 144.80 4 16 295
1927 WP MM 1927-08-16 00:00:00 NR 11.82 144.30 1578 1578 __________P___ -1 11.82 144.30 4 16 295
1927 WP MM 03:00:00 NR 12.16 143.56 1636 1638 __________P___ -1 12.16 143.56 4 16 295
1927 WP MM 06:00:00 NR 12.48 142.83 1659 1656 __________P___ -1 12.48 142.83 4 15 295
1927 WP MM 09:00:00 NR 12.80 142.13 1669 1665 __________P___ -1 12.80 142.13 4 15 295
1927 WP MM 10:00:00 NR 12.90 141.90 1671 1667 __________O___ -1 12.90 141.90 4 14 295
1927 WP MM 12:00:00 NR 13.10 141.45 1675 1652 __________P___ -1 13.10 141.45 4 14 295
1927 WP MM 15:00:00 NR 13.39 140.81 1652 1591 __________P___ -1 13.39 140.81 4 14 295
1927 WP MM 18:00:00 NR 13.66 140.20 1593 1533 __________P___ -1 13.66 140.20 4 13 294
1927 WP MM 21:00:00 NR 13.92 139.60 1533 1514 __________P___ -1 13.92 139.60 4 13 294
1927 WP MM 22:00:00 NR 14.00 139.40 1514 1477 __________O___ -1 14.00 139.40 4 12 293
1927 WP MM 1927-08-17 00:00:00 NR 14.16 139.01 1477 1418 __________P___ -1 14.16 139.01 4 12 293
1927 WP MM 03:00:00 NR 14.40 138.44 1418 1368 __________P___ -1 14.40 138.44 4 12 292
1927 WP MM 06:00:00 NR 14.62 137.88 1368 1309 __________P___ -1 14.62 137.88 4 12 291
1927 WP MM 09:00:00 NR 14.83 137.30 1309 1290 __________P___ -1 14.83 137.30 4 12 291
1927 WP MM 10:00:00 NR 14.90 137.10 1290 1250 __________O___ -1 14.90 137.10 4 13 290
1927 WP MM 12:00:00 NR 15.04 136.69 1250 1186 __________P___ -1 15.04 136.69 4 13 289
1927 WP MM 15:00:00 NR 15.25 136.05 1186 1127 __________P___ -1 15.25 136.05 4 13 288
1927 WP MM 18:00:00 NR 15.45 135.39 1131 1063 __________P___ -1 15.45 135.39 4 13 287
1927 WP MM 21:00:00 NR 15.64 134.72 1063 1047 __________P___ -1 15.64 134.72 4 13 286
1927 WP MM 22:00:00 NR 15.70 134.50 1047 1011 __________O___ -1 15.70 134.50 4 13 285
1927 WP MM 1927-08-18 00:00:00 NR 15.81 134.05 1011 952 __________P___ -1 15.81 134.05 4 13 284
1927 WP MM 03:00:00 NR 15.97 133.37 952 890 __________P___ -1 15.97 133.37 4 13 283
1927 WP MM 06:00:00 NR 16.12 132.69 890 837 __________P___ -1 16.12 132.69 4 13 282
1927 WP MM 09:00:00 NR 16.26 132.02 837 819 __________P___ -1 16.26 132.02 4 13 282
1927 WP MM 10:00:00 NR 16.30 131.80 819 790 __________O___ -1 16.30 131.80 4 12 282
1927 WP MM 12:00:00 NR 16.38 131.40 790 746 __________P___ -1 16.38 131.40 4 12 282
1927 WP MM 15:00:00 NR 16.50 130.82 746 691 __________P___ -1 16.50 130.82 4 12 282
1927 WP MM 18:00:00 NR 16.62 130.22 691 636 __________P___ -1 16.62 130.22 4 12 282
1927 WP MM 21:00:00 NR 16.75 129.55 636 617 __________P___ -1 16.75 129.55 4 13 282
1927 WP MM 22:00:00 NR 16.80 129.30 617 570 __________O___ -1 16.80 129.30 4 16 281
1927 WP MM 1927-08-19 00:00:00 NR 16.91 128.75 570 510 __________P___ -1 16.91 128.75 4 17 281
1927 WP MM 03:00:00 NR 17.08 127.84 510 453 __________P___ -1 17.08 127.84 4 18 281
1927 WP MM 06:00:00 NR 17.26 126.88 462 363 __________P___ -1 17.26 126.88 4 19 281
1927 WP MM 09:00:00 NR 17.44 125.92 363 344 __________P___ -1 17.44 125.92 4 19 281
1927 WP MM 10:00:00 NR 17.50 125.60 333 273 __________O___ -1 17.50 125.60 4 18 279
1927 WP MM 12:00:00 NR 17.58 124.99 273 185 __________P___ -1 17.58 124.99 4 17 278
1927 WP MM 15:00:00 NR 17.71 124.10 185 105 __________P___ -1 17.71 124.10 4 17 280
1927 WP MM 18:00:00 NR 17.87 123.22 105 21 __________P___ -1 17.87 123.22 4 17 283
1927 WP MM 21:00:00 NR 18.10 122.37 21 0 __________P___ -1 18.10 122.37 4 17 287
1927 WP MM 22:00:00 NR 18.20 122.10 0 0 __________O___ -1 18.20 122.10 4 17 296
1927 WP MM 1927-08-20 00:00:00 NR 18.46 121.58 11 10 __________P___ -1 18.46 121.58 4 17 301
1927 WP MM 03:00:00 NR 18.94 120.82 33 44 __________P___ -1 18.94 120.82 4 17 305
1927 WP MM 06:00:00 NR 19.45 120.07 124 131 __________P___ -1 19.45 120.07 4 18 305
1927 WP MM 09:00:00 NR 19.95 119.28 214 229 __________P___ -1 19.95 119.28 4 18 303
1927 WP MM 10:00:00 NR 20.10 119.00 252 252 __________O___ -1 20.10 119.00 4 18 297
1927 WP MM 12:00:00 NR 20.37 118.41 291 266 __________P___ -1 20.37 118.41 4 19 294
1927 WP MM 15:00:00 NR 20.73 117.47 266 203 __________P___ -1 20.73 117.47 4 19 290
1927 WP MM 18:00:00 NR 21.02 116.51 203 157 __________P___ -1 21.02 116.51 4 19 286
1927 WP MM 21:00:00 NR 21.25 115.53 157 140 __________P___ -1 21.25 115.53 4 19 283
1927 WP MM 22:00:00 NR 21.30 115.20 137 105 __________O___ -1 21.30 115.20 4 18 278
1927 WP MM 1927-08-21 00:00:00 NR 21.37 114.56 105 83 __________P___ -1 21.37 114.56 4 18 274
1927 WP MM 03:00:00 NR 21.39 113.59 83 44 __________P___ -1 21.39 113.59 4 18 271
1927 WP MM 06:00:00 NR 21.39 112.64 44 15 __________P___ -1 21.39 112.64 4 18 270
1927 WP MM 09:00:00 NR 21.39 111.71 15 11 __________P___ -1 21.39 111.71 4 17 271
1927 WP MM 10:00:00 NR 21.40 111.40 10 0 __________O___ -1 21.40 111.40 4 17 274
1927 WP MM 12:00:00 NR 21.45 110.80 0 0 __________P___ -1 21.45 110.80 4 17 277
1927 WP MM 15:00:00 NR 21.57 109.92 0 0 __________P___ -1 21.57 109.92 4 17 280
1927 WP MM 18:00:00 NR 21.74 109.05 0 0 __________P___ -1 21.74 109.05 4 16 283
1927 WP MM 21:00:00 NR 21.93 108.19 0 0 __________P___ -1 21.93 108.19 4 16 284
1927 WP MM 22:00:00 NR 22.00 107.90 0 __________O___ -1 22.00 107.90 4 16 284